createdAt,value
2022-10-17T00:04:30.413Z,14.00
2022-10-17T00:09:32.187Z,13.70
2022-10-17T00:14:34.671Z,15.50
2022-10-17T00:19:36.443Z,14.90
2022-10-17T00:24:38.196Z,14.70
2022-10-17T00:29:40.029Z,15.00
2022-10-17T00:34:42.285Z,14.10
2022-10-17T00:39:44.047Z,14.80
2022-10-17T00:44:48.687Z,14.80
2022-10-17T00:49:52.815Z,16.70
2022-10-17T00:54:58.646Z,16.10
2022-10-17T01:00:04.776Z,15.40
2022-10-17T01:05:08.400Z,14.20
2022-10-17T01:10:10.958Z,14.20
2022-10-17T01:15:45.340Z,11.70
2022-10-17T01:21:02.332Z,14.60
2022-10-17T01:26:24.100Z,13.80
2022-10-17T01:31:34.793Z,13.40
2022-10-17T01:36:37.103Z,14.60
2022-10-17T01:41:42.819Z,13.50
2022-10-17T01:46:49.817Z,14.00
2022-10-17T01:52:01.170Z,13.80
2022-10-17T01:57:08.038Z,13.00
2022-10-17T02:02:14.840Z,13.20
2022-10-17T02:07:16.718Z,12.90
2022-10-17T02:12:37.480Z,13.80
2022-10-17T02:17:52.670Z,12.50
2022-10-17T02:23:22.135Z,14.40
2022-10-17T02:28:45.424Z,14.30
2022-10-17T02:33:55.916Z,14.30
2022-10-17T02:39:00.702Z,12.90
2022-10-17T02:44:04.981Z,12.40
2022-10-17T02:49:30.043Z,10.50
2022-10-17T02:54:41.690Z,12.40
2022-10-17T02:59:45.760Z,11.30
2022-10-17T03:04:47.874Z,12.30
2022-10-17T03:09:51.079Z,12.80
2022-10-17T03:14:53.098Z,10.80
2022-10-17T03:19:55.200Z,13.20
2022-10-17T03:24:57.119Z,12.50
2022-10-17T03:29:59.182Z,13.30
2022-10-17T03:35:03.118Z,10.90
2022-10-17T03:40:05.547Z,11.60
2022-10-17T03:45:08.381Z,12.40
2022-10-17T03:50:10.775Z,12.00
2022-10-17T03:55:13.370Z,13.20
2022-10-17T04:00:15.766Z,12.50
2022-10-17T04:05:17.510Z,11.90
2022-10-17T04:10:19.563Z,12.50
2022-10-17T04:15:22.347Z,12.50
2022-10-17T04:20:24.383Z,13.80
2022-10-17T04:25:26.193Z,12.10
2022-10-17T04:30:29.013Z,12.80
2022-10-17T04:35:30.861Z,12.10
2022-10-17T04:40:36.955Z,12.50
2022-10-17T04:45:39.019Z,10.70
2022-10-17T04:50:41.388Z,11.30
2022-10-17T04:56:07.324Z,13.20
2022-10-17T05:01:20.760Z,12.90
2022-10-17T05:06:29.503Z,11.70
2022-10-17T05:12:10.476Z,11.90
2022-10-17T05:17:14.683Z,13.40
2022-10-17T05:22:16.576Z,13.50
2022-10-17T05:27:18.613Z,14.40
2022-10-17T05:32:20.605Z,13.40
2022-10-17T05:37:23.114Z,13.20
2022-10-17T05:42:26.857Z,13.00
2022-10-17T05:47:29.329Z,13.10
2022-10-17T05:52:31.695Z,10.50
2022-10-17T05:57:40.587Z,11.60
2022-10-17T06:02:46.900Z,13.00
2022-10-17T06:07:52.554Z,10.60
2022-10-17T06:12:56.754Z,12.40
2022-10-17T06:17:58.893Z,13.30
2022-10-17T06:23:00.838Z,10.90
2022-10-17T06:28:32.544Z,10.20
2022-10-17T06:33:34.965Z,11.50
2022-10-17T06:38:37.808Z,10.90
2022-10-17T06:43:48.065Z,12.40
2022-10-17T06:49:10.004Z,11.00
2022-10-17T06:54:17.453Z,11.00
2022-10-17T06:59:42.561Z,9.80
2022-10-17T07:04:48.101Z,9.50
2022-10-17T07:09:51.490Z,9.00
2022-10-17T07:14:54.813Z,9.80
2022-10-17T07:19:57.555Z,8.80
2022-10-17T07:24:59.776Z,8.90
2022-10-17T07:30:06.242Z,8.80
2022-10-17T07:35:14.648Z,8.30
2022-10-17T07:40:16.731Z,8.50
2022-10-17T07:45:19.163Z,8.60
2022-10-17T07:50:21.987Z,9.20
2022-10-17T07:55:23.719Z,8.10
2022-10-17T08:00:25.424Z,7.60
2022-10-17T08:05:27.534Z,7.80
2022-10-17T08:10:29.882Z,7.40
2022-10-17T08:15:32.171Z,8.30
2022-10-17T08:20:34.407Z,7.40
2022-10-17T08:25:39.909Z,8.30
2022-10-17T08:30:41.723Z,8.10
2022-10-17T08:35:43.453Z,8.00
2022-10-17T08:40:49.568Z,7.30
2022-10-17T08:46:03.723Z,7.70
2022-10-17T08:51:29.639Z,6.40
2022-10-17T08:56:49.895Z,7.10
2022-10-17T09:02:15.507Z,6.70
2022-10-17T09:07:37.474Z,6.80
2022-10-17T09:12:50.093Z,6.40
2022-10-17T09:18:22.043Z,7.30
2022-10-17T09:23:30.635Z,6.40
2022-10-17T09:28:38.795Z,6.20
2022-10-17T09:33:54.309Z,7.40
2022-10-17T09:39:12.966Z,6.60
2022-10-17T09:44:22.488Z,6.40
2022-10-17T09:49:33.280Z,8.30
2022-10-17T09:54:50.254Z,6.20
2022-10-17T10:00:06.969Z,7.10
2022-10-17T10:05:20.177Z,6.00
2022-10-17T10:10:28.754Z,6.20
2022-10-17T10:15:34.038Z,7.20
2022-10-17T10:20:41.854Z,6.20
2022-10-17T10:26:37.209Z,6.00
2022-10-17T10:31:40.351Z,5.80
2022-10-17T10:36:45.218Z,6.90
2022-10-17T10:41:50.110Z,14.40
2022-10-17T10:47:29.157Z,10.50
2022-10-17T10:52:39.012Z,10.10
2022-10-17T10:57:44.318Z,6.40
2022-10-17T11:03:01.693Z,6.20
2022-10-17T11:08:34.714Z,17.40
2022-10-17T11:13:42.632Z,7.50
2022-10-17T11:19:01.747Z,5.70
2022-10-17T11:24:21.759Z,7.10
2022-10-17T11:29:29.417Z,6.40
2022-10-17T11:34:36.481Z,6.20
2022-10-17T11:44:50.701Z,7.00
2022-10-17T11:51:59.705Z,5.80
2022-10-17T11:55:24.775Z,5.60
2022-10-17T12:00:29.512Z,6.40
2022-10-17T12:05:59.305Z,6.30
2022-10-17T12:11:08.482Z,5.70
2022-10-17T12:16:19.824Z,5.60
2022-10-17T12:21:22.493Z,8.00
2022-10-17T12:26:27.691Z,7.80
2022-10-17T12:31:33.925Z,7.70
2022-10-17T12:36:38.039Z,7.10
2022-10-17T12:41:39.799Z,6.90
2022-10-17T12:46:42.400Z,6.60
2022-10-17T12:52:06.383Z,5.90
2022-10-17T12:57:43.779Z,6.90
2022-10-17T13:02:46.394Z,7.20
2022-10-17T13:07:49.616Z,6.50
2022-10-17T13:12:59.626Z,6.20
2022-10-17T13:18:02.170Z,4.70
2022-10-17T13:23:04.197Z,6.40
2022-10-17T13:28:12.793Z,5.80
2022-10-17T13:33:38.985Z,5.90
2022-10-17T13:38:42.697Z,6.20
2022-10-17T13:43:44.939Z,5.90
2022-10-17T13:48:46.791Z,6.20
2022-10-17T13:53:48.572Z,6.10
2022-10-17T13:58:53.486Z,5.80
2022-10-17T14:04:07.645Z,6.50
2022-10-17T14:09:30.217Z,6.50
2022-10-17T14:14:46.078Z,6.70
2022-10-17T14:20:14.180Z,6.10
2022-10-17T14:25:37.493Z,6.20
2022-10-17T14:30:56.141Z,5.60
2022-10-17T14:36:01.396Z,5.50
2022-10-17T14:46:36.810Z,7.00
2022-10-17T14:51:50.386Z,5.40
2022-10-17T14:56:59.296Z,13.10
2022-10-17T15:02:01.011Z,8.30
2022-10-17T15:07:02.804Z,5.60
2022-10-17T15:12:11.665Z,5.60
2022-10-17T15:17:20.832Z,5.80
2022-10-17T15:22:23.991Z,5.30
2022-10-17T15:27:26.519Z,5.50
2022-10-17T15:32:28.333Z,6.20
2022-10-17T15:37:33.902Z,4.40
2022-10-17T15:42:35.721Z,5.10
2022-10-17T15:47:38.687Z,4.40
2022-10-17T15:52:41.529Z,5.30
2022-10-17T15:57:45.335Z,6.70
2022-10-17T16:02:47.826Z,7.40
2022-10-17T16:07:49.769Z,7.10
2022-10-17T16:12:51.610Z,7.00
2022-10-17T16:17:55.968Z,5.70
2022-10-17T16:23:00.599Z,7.70
2022-10-17T16:28:02.375Z,6.30
2022-10-17T16:33:04.212Z,6.30
2022-10-17T16:38:07.753Z,7.30
2022-10-17T16:43:13.016Z,6.40
2022-10-17T16:48:14.826Z,6.60
2022-10-17T16:53:16.525Z,6.60
2022-10-17T16:58:18.463Z,6.40
2022-10-17T17:03:20.262Z,6.20
2022-10-17T17:08:22.051Z,6.50
2022-10-17T17:13:23.855Z,8.60
2022-10-17T17:18:25.676Z,10.50
2022-10-17T17:23:28.373Z,13.20
2022-10-17T17:28:32.126Z,12.80
2022-10-17T17:33:33.899Z,14.30
2022-10-17T17:38:36.836Z,13.70
2022-10-17T17:43:38.601Z,11.00
2022-10-17T17:48:41.602Z,12.30
2022-10-17T17:53:43.922Z,12.20
2022-10-17T17:58:47.740Z,12.60
2022-10-17T18:03:51.173Z,11.80
2022-10-17T18:08:57.786Z,13.50
2022-10-17T18:14:02.017Z,12.80
2022-10-17T18:19:06.635Z,12.20
2022-10-17T18:24:08.811Z,12.20
2022-10-17T18:29:13.042Z,14.20
2022-10-17T18:34:14.917Z,13.00
2022-10-17T18:39:17.562Z,13.70
2022-10-17T18:44:19.540Z,14.30
2022-10-17T18:49:23.241Z,14.10
2022-10-17T18:54:25.045Z,15.00
2022-10-17T18:59:26.902Z,14.60
2022-10-17T19:04:28.644Z,14.80
2022-10-17T19:09:30.481Z,14.40
2022-10-17T19:14:32.396Z,14.80
2022-10-17T19:19:34.235Z,15.50
2022-10-17T19:24:35.995Z,15.50
2022-10-17T19:29:37.929Z,14.10
2022-10-17T19:34:39.711Z,13.90
2022-10-17T19:39:41.466Z,12.80
2022-10-17T19:44:43.312Z,12.80
2022-10-17T19:49:49.756Z,13.00
2022-10-17T19:54:51.912Z,12.70
2022-10-17T19:59:55.967Z,12.60
2022-10-17T20:05:13.935Z,12.20
2022-10-17T20:10:20.698Z,12.00
2022-10-17T20:15:22.501Z,12.60
2022-10-17T20:20:24.874Z,11.40
2022-10-17T20:25:26.958Z,11.30
2022-10-17T20:30:28.815Z,11.10
2022-10-17T20:35:30.604Z,11.10
2022-10-17T20:40:35.816Z,10.80
2022-10-17T20:45:50.994Z,10.40
2022-10-17T20:50:54.276Z,10.10
2022-10-17T20:56:04.842Z,11.40
2022-10-17T21:01:09.002Z,11.70
2022-10-17T21:06:11.467Z,10.90
2022-10-17T21:11:24.657Z,11.20
2022-10-17T21:16:30.697Z,11.00
2022-10-17T21:21:35.041Z,10.90
2022-10-17T21:26:38.097Z,11.20
2022-10-17T21:31:42.640Z,10.20
2022-10-17T21:36:45.215Z,9.80
2022-10-17T21:41:47.012Z,9.90
2022-10-17T21:46:49.819Z,9.90
2022-10-17T21:51:52.656Z,10.00
2022-10-17T21:56:54.297Z,9.20
2022-10-17T22:01:56.032Z,9.30
2022-10-17T22:06:57.709Z,8.80
2022-10-17T22:11:59.351Z,8.30
2022-10-17T22:17:01.632Z,7.80
2022-10-17T22:22:03.247Z,8.80
2022-10-17T22:27:04.916Z,7.70
2022-10-17T22:32:06.563Z,7.50
2022-10-17T22:37:08.215Z,7.40
2022-10-17T22:42:09.912Z,8.10
2022-10-17T22:47:11.597Z,7.80
2022-10-17T22:52:13.285Z,8.60
2022-10-17T22:57:15.153Z,7.50
2022-10-17T23:02:16.830Z,8.90
2022-10-17T23:07:18.510Z,8.40
2022-10-17T23:12:23.824Z,8.60
2022-10-17T23:17:25.519Z,7.90
2022-10-17T23:22:27.209Z,7.90
2022-10-17T23:32:36.218Z,7.70
2022-10-17T23:37:37.964Z,7.70
2022-10-17T23:42:39.656Z,7.00
2022-10-17T23:47:46.234Z,6.80
2022-10-17T23:52:47.966Z,7.60
2022-10-17T23:57:49.596Z,7.70
